createdAt,value
2023-04-04T00:02:12.469Z,94.49
2023-04-04T00:04:58.767Z,95.02
2023-04-04T00:07:42.637Z,94.54
2023-04-04T00:10:26.445Z,94.78
2023-04-04T00:13:10.660Z,96.59
2023-04-04T00:15:55.007Z,97.53
2023-04-04T00:18:38.969Z,97.37
2023-04-04T00:21:25.649Z,97.96
2023-04-04T00:24:09.999Z,97.37
2023-04-04T00:26:54.635Z,97.14
2023-04-04T00:29:38.657Z,98.12
2023-04-04T00:32:22.775Z,98.15
2023-04-04T00:35:07.324Z,98.78
2023-04-04T00:37:52.492Z,98.34
2023-04-04T00:40:42.463Z,98.55
2023-04-04T00:43:27.738Z,98.66
2023-04-04T00:46:15.164Z,98.02
2023-04-04T00:49:00.053Z,98.21
2023-04-04T00:51:44.348Z,98.79
2023-04-04T00:54:31.315Z,98.82
2023-04-04T00:57:16.624Z,98.78
2023-04-04T01:00:01.995Z,98.29
2023-04-04T01:02:48.264Z,98.83
2023-04-04T01:05:33.364Z,98.59
2023-04-04T01:08:22.742Z,97.87
2023-04-04T01:11:08.577Z,98.02
2023-04-04T01:13:53.312Z,97.49
2023-04-04T01:16:37.435Z,97.62
2023-04-04T01:19:30.095Z,97.46
2023-04-04T01:22:15.996Z,97.34
2023-04-04T01:25:03.029Z,96.87
2023-04-04T01:27:49.135Z,96.83
2023-04-04T01:30:38.236Z,96.29
2023-04-04T01:33:28.048Z,96.05
2023-04-04T01:36:18.268Z,96.15
2023-04-04T01:39:11.273Z,96.35
2023-04-04T01:41:57.746Z,95.34
2023-04-04T01:44:43.721Z,95.51
2023-04-04T01:47:29.367Z,95.03
2023-04-04T01:50:13.735Z,95.82
2023-04-04T01:52:57.802Z,95.13
2023-04-04T01:55:42.571Z,95.78
2023-04-04T01:58:26.904Z,95.74
2023-04-04T02:01:12.866Z,95.22
2023-04-04T02:03:57.011Z,95.58
2023-04-04T02:06:41.564Z,95.86
2023-04-04T02:09:25.502Z,95.90
2023-04-04T02:12:10.173Z,96.68
2023-04-04T02:14:54.044Z,96.57
2023-04-04T02:17:40.142Z,97.18
2023-04-04T02:20:24.277Z,96.81
2023-04-04T02:23:08.272Z,96.66
2023-04-04T02:25:52.859Z,96.97
2023-04-04T02:28:36.882Z,96.96
2023-04-04T02:31:20.896Z,97.17
2023-04-04T02:34:06.714Z,97.51
2023-04-04T02:36:51.893Z,96.46
2023-04-04T02:39:36.551Z,97.01
2023-04-04T02:42:20.584Z,97.62
2023-04-04T02:45:05.086Z,97.39
2023-04-04T02:47:51.952Z,97.66
2023-04-04T02:50:42.562Z,97.90
2023-04-04T02:53:29.762Z,97.81
2023-04-04T02:56:19.810Z,97.92
2023-04-04T02:59:05.122Z,98.60
2023-04-04T03:01:48.997Z,97.66
2023-04-04T03:04:33.403Z,98.21
2023-04-04T03:07:19.018Z,98.02
2023-04-04T03:10:02.857Z,98.23
2023-04-04T03:12:47.234Z,97.53
2023-04-04T03:15:31.875Z,98.44
2023-04-04T03:18:16.218Z,97.58
2023-04-04T03:21:00.344Z,98.56
2023-04-04T03:23:46.031Z,98.90
2023-04-04T03:26:30.146Z,99.07
2023-04-04T03:29:14.539Z,99.47
2023-04-04T03:31:58.616Z,100.00
2023-04-04T03:34:42.737Z,99.55
2023-04-04T03:37:26.659Z,99.18
2023-04-04T03:40:12.635Z,100.00
2023-04-04T03:42:56.542Z,100.00
2023-04-04T03:45:40.733Z,100.00
2023-04-04T03:48:25.716Z,100.00
2023-04-04T03:51:09.669Z,100.00
2023-04-04T03:53:54.921Z,100.00
2023-04-04T03:56:40.238Z,100.00
2023-04-04T03:59:24.315Z,100.00
2023-04-04T04:02:08.914Z,100.00
2023-04-04T04:04:53.251Z,100.00
2023-04-04T04:07:37.087Z,100.00
2023-04-04T04:10:21.470Z,100.00
2023-04-04T04:13:06.707Z,100.00
2023-04-04T04:15:51.368Z,100.00
2023-04-04T04:18:39.303Z,100.00
2023-04-04T04:21:28.830Z,100.00
2023-04-04T04:24:12.642Z,100.00
2023-04-04T04:26:56.510Z,100.00
2023-04-04T04:29:41.721Z,100.00
2023-04-04T04:32:27.402Z,100.00
2023-04-04T04:35:11.811Z,100.00
2023-04-04T04:37:57.049Z,100.00
2023-04-04T04:40:41.225Z,100.00
2023-04-04T04:43:32.316Z,100.00
2023-04-04T04:46:18.261Z,100.00
2023-04-04T04:49:02.124Z,100.00
2023-04-04T04:51:49.313Z,100.00
2023-04-04T04:54:35.270Z,100.00
2023-04-04T04:57:19.275Z,100.00
2023-04-04T05:00:04.563Z,100.00
2023-04-04T05:02:50.980Z,100.00
2023-04-04T05:05:44.343Z,100.00
2023-04-04T05:08:30.737Z,100.00
2023-04-04T05:11:21.692Z,100.00
2023-04-04T05:14:06.836Z,100.00
2023-04-04T05:16:56.009Z,100.00
2023-04-04T05:19:46.469Z,100.00
2023-04-04T05:22:34.434Z,100.00
2023-04-04T05:25:18.362Z,100.00
2023-04-04T05:28:04.028Z,100.00
2023-04-04T05:30:49.123Z,100.00
2023-04-04T05:33:36.939Z,100.00
2023-04-04T05:36:29.499Z,100.00
2023-04-04T05:39:18.713Z,100.00
2023-04-04T05:42:14.876Z,100.00
2023-04-04T05:45:05.208Z,100.00
2023-04-04T05:47:49.062Z,100.00
2023-04-04T05:50:32.806Z,100.00
2023-04-04T05:53:21.252Z,100.00
2023-04-04T05:56:07.642Z,100.00
2023-04-04T05:58:52.100Z,100.00
2023-04-04T06:01:36.657Z,100.00
2023-04-04T06:04:27.116Z,100.00
2023-04-04T06:07:12.747Z,100.00
2023-04-04T06:09:57.894Z,100.00
2023-04-04T06:12:42.485Z,100.00
2023-04-04T06:15:27.779Z,100.00
2023-04-04T06:18:11.664Z,100.00
2023-04-04T06:20:55.866Z,100.00
2023-04-04T06:23:40.135Z,100.00
2023-04-04T06:26:27.035Z,100.00
2023-04-04T06:29:11.563Z,100.00
2023-04-04T06:31:58.212Z,100.00
2023-04-04T06:34:51.290Z,100.00
2023-04-04T06:37:44.218Z,100.00
2023-04-04T06:40:34.229Z,100.00
2023-04-04T06:43:19.832Z,100.00
2023-04-04T06:46:03.640Z,100.00
2023-04-04T06:48:47.946Z,100.00
2023-04-04T06:51:34.871Z,100.00
2023-04-04T06:54:18.989Z,100.00
2023-04-04T06:57:03.144Z,100.00
2023-04-04T06:59:48.372Z,100.00
2023-04-04T07:02:33.115Z,100.00
2023-04-04T07:05:18.267Z,100.00
2023-04-04T07:08:02.400Z,100.00
2023-04-04T07:10:46.514Z,100.00
2023-04-04T07:13:30.347Z,100.00
2023-04-04T07:16:15.739Z,100.00
2023-04-04T07:18:59.610Z,100.00
2023-04-04T07:21:43.416Z,100.00
2023-04-04T07:24:27.298Z,100.00
2023-04-04T07:27:11.329Z,100.00
2023-04-04T07:29:55.272Z,100.00
2023-04-04T07:32:40.685Z,99.76
2023-04-04T07:35:24.701Z,100.00
2023-04-04T07:38:08.516Z,100.00
2023-04-04T07:40:52.353Z,100.00
2023-04-04T07:43:36.182Z,100.00
2023-04-04T07:46:20.405Z,99.86
2023-04-04T07:49:06.107Z,99.73
2023-04-04T07:51:50.148Z,100.00
2023-04-04T07:54:33.907Z,99.84
2023-04-04T07:57:17.710Z,100.00
2023-04-04T08:00:01.558Z,100.00
2023-04-04T08:02:46.508Z,98.95
2023-04-04T08:05:31.643Z,97.60
2023-04-04T08:08:15.567Z,96.33
2023-04-04T08:10:59.419Z,96.26
2023-04-04T08:13:43.434Z,97.34
2023-04-04T08:16:27.931Z,96.74
2023-04-04T08:19:12.620Z,96.28
2023-04-04T08:21:58.041Z,96.25
2023-04-04T08:24:41.706Z,96.28
2023-04-04T08:27:25.575Z,94.69
2023-04-04T08:30:10.296Z,94.34
2023-04-04T08:32:54.278Z,95.98
2023-04-04T08:35:38.133Z,95.38
2023-04-04T08:38:23.478Z,95.22
2023-04-04T08:41:07.380Z,94.74
2023-04-04T08:43:54.809Z,93.18
2023-04-04T08:46:39.221Z,94.03
2023-04-04T08:49:25.297Z,93.04
2023-04-04T08:52:12.812Z,94.72
2023-04-04T08:54:59.529Z,94.46
2023-04-04T08:57:43.506Z,92.56
2023-04-04T09:00:28.110Z,88.28
2023-04-04T09:03:19.005Z,89.31
2023-04-04T09:06:03.728Z,90.28
2023-04-04T09:08:48.744Z,90.26
2023-04-04T09:11:35.952Z,89.07
2023-04-04T09:14:20.934Z,88.78
2023-04-04T09:17:04.812Z,89.81
2023-04-04T09:19:48.608Z,88.19
2023-04-04T09:22:32.735Z,89.39
2023-04-04T09:25:17.819Z,87.83
2023-04-04T09:28:05.588Z,86.69
2023-04-04T09:30:49.983Z,86.50
2023-04-04T09:33:34.550Z,87.65
2023-04-04T09:36:18.829Z,87.53
2023-04-04T09:39:04.389Z,86.47
2023-04-04T09:41:48.818Z,84.34
2023-04-04T09:44:34.609Z,86.47
2023-04-04T09:50:22.089Z,88.86
2023-04-04T09:53:06.065Z,88.36
2023-04-04T09:55:54.433Z,88.94
2023-04-04T09:58:46.392Z,90.47
2023-04-04T10:01:39.417Z,90.25
2023-04-04T10:04:24.771Z,89.53
2023-04-04T10:07:13.795Z,88.20
2023-04-04T10:09:58.096Z,87.19
2023-04-04T10:12:41.843Z,88.81
2023-04-04T10:15:26.014Z,87.89
2023-04-04T10:18:12.584Z,85.59
2023-04-04T10:21:12.289Z,85.07
2023-04-04T10:24:00.501Z,84.72
2023-04-04T10:26:44.440Z,87.55
2023-04-04T10:29:29.030Z,85.15
2023-04-04T10:32:18.538Z,85.12
2023-04-04T10:35:07.835Z,84.55
2023-04-04T10:37:58.866Z,85.75
2023-04-04T10:40:49.228Z,84.58
2023-04-04T10:43:36.263Z,84.70
2023-04-04T10:46:30.892Z,84.88
2023-04-04T10:49:16.159Z,84.80
2023-04-04T10:52:02.252Z,81.91
2023-04-04T10:54:47.980Z,83.90
2023-04-04T10:57:32.351Z,82.90
2023-04-04T11:00:19.465Z,82.03
2023-04-04T11:03:03.632Z,83.46
2023-04-04T11:05:49.114Z,83.35
2023-04-04T11:08:37.521Z,83.38
2023-04-04T11:11:23.142Z,83.48
2023-04-04T11:14:08.446Z,81.90
2023-04-04T11:16:53.818Z,80.50
2023-04-04T11:19:41.135Z,79.46
2023-04-04T11:22:24.939Z,79.09
2023-04-04T11:25:31.733Z,78.85
2023-04-04T11:28:25.756Z,79.48
2023-04-04T11:31:29.875Z,78.17
2023-04-04T11:34:14.710Z,77.93
2023-04-04T11:37:01.863Z,77.03
2023-04-04T11:39:50.784Z,74.50
2023-04-04T11:42:39.687Z,73.71
2023-04-04T11:45:27.214Z,75.05
2023-04-04T11:48:11.258Z,73.24
2023-04-04T11:50:55.289Z,76.98
2023-04-04T11:53:39.462Z,80.20
2023-04-04T11:56:23.911Z,79.63
2023-04-04T11:59:11.771Z,78.23
2023-04-04T12:01:56.392Z,78.90
2023-04-04T12:04:44.693Z,78.79
2023-04-04T12:07:30.697Z,77.00
2023-04-04T12:10:14.758Z,76.49
2023-04-04T12:13:00.068Z,74.98
2023-04-04T12:15:45.303Z,73.13
2023-04-04T12:18:29.128Z,71.67
2023-04-04T12:21:13.037Z,73.31
2023-04-04T12:23:57.719Z,72.39
2023-04-04T12:26:43.304Z,73.54
2023-04-04T12:29:29.204Z,72.47
2023-04-04T12:32:15.984Z,76.92
2023-04-04T12:35:02.844Z,77.08
2023-04-04T12:37:59.986Z,77.41
2023-04-04T12:40:46.397Z,76.17
2023-04-04T12:43:30.751Z,76.13
2023-04-04T12:46:15.162Z,77.84
2023-04-04T12:49:01.122Z,80.11
2023-04-04T12:51:46.067Z,79.80
2023-04-04T12:54:31.856Z,79.71
2023-04-04T12:57:20.199Z,78.70
2023-04-04T13:00:06.733Z,76.54
2023-04-04T13:02:52.488Z,78.12
2023-04-04T13:05:39.184Z,76.84
2023-04-04T13:08:23.352Z,77.64
2023-04-04T13:11:07.890Z,79.68
2023-04-04T13:14:02.040Z,80.04
2023-04-04T13:16:46.081Z,79.04
2023-04-04T13:19:29.833Z,78.93
2023-04-04T13:22:15.066Z,77.64
2023-04-04T13:24:58.931Z,76.60
2023-04-04T13:27:42.849Z,75.44
2023-04-04T13:30:28.179Z,74.36
2023-04-04T13:33:12.221Z,72.83
2023-04-04T13:35:57.690Z,74.04
2023-04-04T13:38:43.007Z,73.80
2023-04-04T13:41:26.911Z,72.14
2023-04-04T13:44:11.023Z,70.48
2023-04-04T13:46:54.781Z,68.29
2023-04-04T13:49:38.490Z,67.08
2023-04-04T13:52:22.364Z,66.82
2023-04-04T13:55:08.458Z,65.24
2023-04-04T13:57:52.540Z,67.50
2023-04-04T14:00:36.553Z,66.10
2023-04-04T14:03:20.438Z,67.60
2023-04-04T14:06:10.246Z,68.14
2023-04-04T14:08:54.711Z,67.75
2023-04-04T14:11:39.903Z,67.70
2023-04-04T14:14:25.061Z,71.62
2023-04-04T14:17:09.018Z,74.22
2023-04-04T14:19:52.861Z,73.22
2023-04-04T14:22:36.635Z,75.15
2023-04-04T14:25:20.454Z,76.43
2023-04-04T14:28:06.145Z,75.99
2023-04-04T14:30:51.252Z,74.81
2023-04-04T14:33:35.212Z,76.27
2023-04-04T14:36:21.667Z,78.72
2023-04-04T14:39:05.633Z,79.96
2023-04-04T14:41:49.584Z,79.35
2023-04-04T14:44:35.449Z,77.93
2023-04-04T14:47:19.470Z,79.05
2023-04-04T14:50:04.292Z,79.62
2023-04-04T14:52:51.218Z,79.24
2023-04-04T14:55:35.081Z,78.75
2023-04-04T14:58:18.995Z,80.71
2023-04-04T15:01:04.718Z,80.16
2023-04-04T15:03:48.969Z,79.73
2023-04-04T15:06:36.311Z,79.77
2023-04-04T15:09:20.172Z,80.17
2023-04-04T15:12:04.173Z,79.28
2023-04-04T15:14:47.969Z,80.75
2023-04-04T15:17:33.174Z,81.13
2023-04-04T15:20:17.438Z,82.41
2023-04-04T15:23:01.173Z,81.36
2023-04-04T15:25:45.063Z,80.56
2023-04-04T15:28:29.662Z,79.55
2023-04-04T15:31:15.004Z,78.02
2023-04-04T15:34:03.967Z,81.40
2023-04-04T15:36:50.120Z,79.92
2023-04-04T15:39:39.735Z,79.26
2023-04-04T15:42:29.825Z,81.24
2023-04-04T15:45:14.731Z,81.83
2023-04-04T15:47:58.520Z,80.96
2023-04-04T15:50:43.733Z,79.80
2023-04-04T15:53:27.603Z,80.07
2023-04-04T15:56:11.377Z,78.75
2023-04-04T15:58:55.901Z,79.28
2023-04-04T16:01:40.899Z,79.21
2023-04-04T16:04:24.756Z,79.93
2023-04-04T16:07:10.162Z,80.96
2023-04-04T16:09:53.961Z,80.51
2023-04-04T16:12:37.771Z,81.29
2023-04-04T16:15:21.920Z,81.94
2023-04-04T16:18:05.736Z,83.93
2023-04-04T16:20:49.535Z,86.93
2023-04-04T16:23:34.932Z,88.41
2023-04-04T16:26:18.701Z,90.36
2023-04-04T16:29:03.498Z,92.18
2023-04-04T16:31:47.506Z,93.08
2023-04-04T16:34:31.859Z,92.52
2023-04-04T16:37:16.891Z,92.50
2023-04-04T16:40:02.414Z,94.22
2023-04-04T16:42:47.324Z,95.07
2023-04-04T16:45:32.146Z,94.34
2023-04-04T16:48:16.617Z,95.02
2023-04-04T16:51:00.959Z,96.58
2023-04-04T16:53:44.919Z,97.06
2023-04-04T16:56:31.374Z,97.10
2023-04-04T16:59:17.465Z,98.07
2023-04-04T17:02:02.624Z,96.95
2023-04-04T17:04:47.744Z,96.20
2023-04-04T17:07:32.573Z,97.00
2023-04-04T17:10:17.369Z,96.54
2023-04-04T17:13:03.740Z,95.35
2023-04-04T17:15:49.077Z,95.89
2023-04-04T17:18:34.876Z,96.35
2023-04-04T17:21:20.433Z,96.41
2023-04-04T17:24:05.567Z,96.26
2023-04-04T17:26:50.461Z,96.70
2023-04-04T17:29:37.031Z,95.35
2023-04-04T17:32:22.497Z,95.27
2023-04-04T17:35:08.758Z,94.76
2023-04-04T17:37:53.818Z,94.75
2023-04-04T17:40:41.288Z,93.75
2023-04-04T17:43:26.454Z,95.14
2023-04-04T17:46:12.933Z,95.07
2023-04-04T17:48:58.019Z,96.26
2023-04-04T17:51:43.012Z,95.65
2023-04-04T17:54:29.131Z,95.84
2023-04-04T17:57:14.259Z,97.11
2023-04-04T17:59:59.340Z,96.95
2023-04-04T18:02:46.104Z,97.54
2023-04-04T18:05:30.602Z,98.64
2023-04-04T18:08:15.309Z,97.63
2023-04-04T18:11:00.569Z,98.46
2023-04-04T18:13:45.906Z,97.95
2023-04-04T18:16:31.948Z,97.65
2023-04-04T18:19:21.013Z,97.64
2023-04-04T18:22:06.113Z,96.89
2023-04-04T18:24:51.206Z,98.25
2023-04-04T18:27:36.138Z,97.01
2023-04-04T18:30:21.141Z,96.01
2023-04-04T18:33:06.703Z,95.74
2023-04-04T18:35:52.958Z,96.79
2023-04-04T18:38:37.849Z,97.45
2023-04-04T18:41:23.021Z,96.67
2023-04-04T18:44:10.247Z,96.84
2023-04-04T18:46:55.319Z,97.05
2023-04-04T18:49:40.453Z,95.73
2023-04-04T18:52:27.795Z,95.65
2023-04-04T18:55:13.361Z,95.79
2023-04-04T18:57:58.406Z,96.46
2023-04-04T19:00:43.876Z,97.09
2023-04-04T19:03:29.101Z,96.60
2023-04-04T19:06:14.159Z,94.85
2023-04-04T19:09:04.749Z,96.85
2023-04-04T19:11:50.121Z,96.90
2023-04-04T19:14:35.271Z,97.88
2023-04-04T19:17:20.638Z,97.06
2023-04-04T19:20:06.240Z,97.64
2023-04-04T19:22:51.523Z,97.87
2023-04-04T19:25:38.193Z,97.54
2023-04-04T19:28:23.589Z,96.17
2023-04-04T19:31:12.052Z,97.13
2023-04-04T19:33:57.840Z,98.41
2023-04-04T19:36:43.562Z,98.97
2023-04-04T19:39:34.399Z,98.48
2023-04-04T19:42:28.213Z,99.72
2023-04-04T19:45:14.931Z,98.84
2023-04-04T19:47:59.608Z,99.08
2023-04-04T19:50:44.610Z,98.37
2023-04-04T19:53:31.240Z,98.26
2023-04-04T19:56:17.636Z,97.41
2023-04-04T19:59:09.088Z,98.75
2023-04-04T20:02:00.537Z,99.69
2023-04-04T20:04:45.797Z,99.15
2023-04-04T20:07:31.139Z,99.05
2023-04-04T20:10:38.395Z,98.31
2023-04-04T20:13:23.498Z,98.59
2023-04-04T20:16:12.337Z,98.65
2023-04-04T20:18:59.937Z,98.27
2023-04-04T20:21:44.958Z,98.01
2023-04-04T20:24:31.000Z,98.09
2023-04-04T20:27:25.138Z,99.01
2023-04-04T20:30:14.305Z,98.73
2023-04-04T20:33:01.867Z,98.24
2023-04-04T20:35:46.965Z,98.68
2023-04-04T20:38:32.175Z,98.09
2023-04-04T20:41:20.287Z,98.96
2023-04-04T20:44:05.249Z,97.75
2023-04-04T20:46:50.576Z,97.92
2023-04-04T20:49:36.271Z,97.75
2023-04-04T20:52:25.150Z,97.22
2023-04-04T20:55:10.583Z,97.70
2023-04-04T20:57:58.695Z,98.26
2023-04-04T21:00:43.770Z,97.16
2023-04-04T21:03:37.957Z,98.21
2023-04-04T21:06:31.030Z,98.18
2023-04-04T21:09:15.700Z,98.81
2023-04-04T21:12:01.845Z,98.39
2023-04-04T21:14:47.000Z,97.61
2023-04-04T21:17:31.812Z,98.38
2023-04-04T21:20:18.224Z,98.45
2023-04-04T21:23:07.363Z,98.98
2023-04-04T21:25:52.420Z,99.06
2023-04-04T21:28:39.656Z,99.87
2023-04-04T21:31:26.934Z,100.00
2023-04-04T21:34:17.211Z,100.00
2023-04-04T21:37:03.382Z,100.00
2023-04-04T21:39:50.154Z,100.00
2023-04-04T21:42:34.218Z,100.00
2023-04-04T21:45:18.491Z,100.00
2023-04-04T21:48:02.763Z,100.00
2023-04-04T21:50:47.135Z,100.00
2023-04-04T21:53:31.278Z,100.00
2023-04-04T21:56:16.935Z,100.00
2023-04-04T21:59:02.066Z,100.00
2023-04-04T22:01:45.975Z,100.00
2023-04-04T22:04:29.851Z,100.00
2023-04-04T22:07:13.709Z,100.00
2023-04-04T22:09:58.894Z,100.00
2023-04-04T22:12:46.936Z,100.00
2023-04-04T22:15:30.856Z,100.00
2023-04-04T22:18:15.935Z,100.00
2023-04-04T22:21:03.197Z,100.00
2023-04-04T22:23:46.909Z,100.00
2023-04-04T22:26:32.644Z,100.00
2023-04-04T22:29:17.905Z,100.00
2023-04-04T22:32:01.830Z,100.00
2023-04-04T22:34:45.833Z,100.00
2023-04-04T22:37:30.678Z,100.00
2023-04-04T22:40:14.582Z,100.00
2023-04-04T22:42:58.700Z,100.00
2023-04-04T22:45:43.950Z,100.00
2023-04-04T22:48:30.848Z,100.00
2023-04-04T22:51:15.293Z,100.00
2023-04-04T22:53:59.066Z,100.00
2023-04-04T22:56:43.081Z,100.00
2023-04-04T22:59:27.161Z,100.00
2023-04-04T23:02:12.334Z,100.00
2023-04-04T23:04:58.572Z,100.00
2023-04-04T23:07:43.461Z,100.00
2023-04-04T23:10:27.583Z,100.00
2023-04-04T23:13:11.604Z,100.00
2023-04-04T23:15:55.711Z,100.00
2023-04-04T23:18:43.802Z,100.00
2023-04-04T23:21:28.942Z,100.00
2023-04-04T23:24:12.774Z,100.00
2023-04-04T23:26:56.777Z,100.00
2023-04-04T23:29:40.580Z,100.00
2023-04-04T23:32:24.564Z,100.00
2023-04-04T23:35:11.433Z,100.00
2023-04-04T23:37:55.287Z,100.00
2023-04-04T23:40:39.218Z,100.00
2023-04-04T23:43:23.482Z,100.00
2023-04-04T23:46:07.564Z,100.00
2023-04-04T23:48:51.420Z,100.00
2023-04-04T23:51:39.085Z,100.00
2023-04-04T23:54:23.502Z,100.00
2023-04-04T23:57:07.321Z,100.00
2023-04-04T23:59:51.074Z,100.00
